.
WxDataArchive / Data Records for 2006-11-05
2006-11-04 November 2006 2006-11-06

Data Records for Sunday, 05 November 2006

Time	Temp	Chill	HIndex	Humid	Dewpt	 Wind 	HiWind	WindDir	Rain 	Barom 
-----	----	-----	------	-----	-----	------	------	-------	-----	----- 
00:00	41.8	41.8	41.8	58	28.1	0	1	112	0.00	30.324 
00:05	41.6	41.6	41.6	58	27.9	0	1	112	0.00	30.324 
00:10	41.5	41.5	41.5	60	28.7	0	1	112	0.00	30.324 
00:15	41.5	41.5	41.5	59	28.3	0	1	112	0.00	30.321 
00:20	41.3	41.3	41.3	59	28.1	0	1	112	0.00	30.321 
00:25	41.3	41.3	41.3	60	28.5	0	1	112	0.00	30.321 
00:30	41.3	41.3	41.3	60	28.5	0	1	112	0.00	30.323 
00:35	41.3	41.3	41.3	59	28.1	0	1	112	0.00	30.323 
00:40	41.2	41.2	41.2	60	28.4	0	1	112	0.00	30.323 
00:45	41.2	41.2	41.2	60	28.4	0	1	112	0.00	30.323 
00:50	41.2	41.2	41.2	60	28.4	0	1	112	0.00	30.323 
00:55	41.2	41.2	41.2	60	28.4	0	1	112	0.00	30.323 
01:00	41.1	41.1	41.1	61	28.7	0	1	112	0.00	30.322 
01:05	41.1	41.1	41.1	60	28.3	0	1	112	0.00	30.322 
01:10	41.1	41.1	41.1	61	28.7	0	1	112	0.00	30.322 
01:15	41.1	41.1	41.1	61	28.7	0	1	112	0.00	30.318 
01:20	41.1	41.1	41.1	61	28.7	0	1	112	0.00	30.318 
01:25	41.2	41.2	41.2	61	28.8	0	2	112	0.00	30.318 
01:30	41.2	41.2	41.2	61	28.8	0	1	112	0.00	30.314 
01:35	41.2	41.2	41.2	61	28.8	0	1	112	0.00	30.314 
01:40	41.2	41.2	41.2	61	28.8	0	1	112	0.00	30.314 
01:45	41.2	41.2	41.2	61	28.8	0	1	112	0.00	30.311 
01:50	41.2	41.2	41.2	61	28.8	0	1	112	0.00	30.311 
01:55	41.3	41.3	41.3	61	28.9	0	1	112	0.00	30.311 
02:00	41.2	41.2	41.2	61	28.8	0	1	112	0.00	30.312 
02:05	41.2	41.2	41.2	62	29.2	0	1	112	0.00	30.312 
02:10	41.2	41.2	41.2	61	28.8	0	1	112	0.00	30.312 
02:15	41.2	41.2	41.2	62	29.2	0	1	112	0.00	30.307 
02:20	41.2	41.2	41.2	61	28.8	0	1	112	0.00	30.307 
02:25	41.2	41.2	41.2	61	28.8	0	1	112	0.00	30.307 
02:30	41.2	41.2	41.2	60	28.4	0	1	112	0.00	30.308 
02:35	41.3	41.3	41.3	60	28.5	0	1	112	0.00	30.308 
02:40	41.5	41.5	41.5	59	28.3	0	2	112	0.00	30.308 
02:45	41.6	41.6	41.6	59	28.3	0	2	112	0.00	30.305 
02:50	41.6	41.6	41.6	59	28.3	0	3	112	0.00	30.305 
02:55	41.8	41.8	41.8	59	28.5	0	2	112	0.00	30.305 
03:00	41.8	41.8	41.8	59	28.5	0	2	112	0.00	30.302 
03:05	41.9	41.9	41.9	58	28.2	0	2	112	0.00	30.302 
03:10	41.9	41.9	41.9	59	28.6	0	1	112	0.00	30.302 
03:15	41.9	41.9	41.9	59	28.6	0	1	112	0.00	30.305 
03:20	41.9	41.9	41.9	59	28.6	0	1	112	0.00	30.305 
03:25	41.8	41.8	41.8	58	28.1	0	2	112	0.00	30.305 
03:30	41.8	41.8	41.8	58	28.1	0	2	112	0.00	30.304 
03:35	41.9	41.9	41.9	58	28.2	0	1	112	0.00	30.304 
03:40	41.8	41.8	41.8	58	28.1	0	1	112	0.00	30.304 
03:45	41.8	41.8	41.8	58	28.1	0	1	112	0.00	30.304 
03:50	41.9	41.9	41.9	58	28.2	0	2	112	0.00	30.304 
03:55	41.9	41.9	41.9	58	28.2	0	1	112	0.00	30.304 
04:00	41.9	41.9	41.9	57	27.8	0	1	112	0.00	30.301 
04:05	41.9	41.9	41.9	57	27.8	0	1	112	0.00	30.301 
04:10	41.9	41.9	41.9	57	27.8	0	1	112	0.00	30.301 
04:15	41.9	41.9	41.9	57	27.8	0	1	112	0.00	30.298 
04:20	41.9	41.9	41.9	56	27.4	0	1	112	0.00	30.298 
04:25	41.9	41.9	41.9	56	27.4	0	1	112	0.00	30.298 
04:30	41.9	41.9	41.9	56	27.4	0	2	112	0.00	30.298 
04:35	42.1	42.1	42.1	57	28.0	0	2	112	0.00	30.298 
04:40	41.9	41.9	41.9	56	27.4	0	1	112	0.00	30.298 
04:45	41.9	41.9	41.9	56	27.4	0	1	112	0.00	30.299 
04:50	41.9	41.9	41.9	56	27.4	0	1	112	0.00	30.299 
04:55	41.9	41.9	41.9	56	27.4	0	1	112	0.00	30.299 
05:00	41.8	41.8	41.8	57	27.7	0	1	112	0.00	30.308 
05:05	41.8	41.8	41.8	57	27.7	0	1	112	0.00	30.308 
05:10	41.8	41.8	41.8	55	26.8	1	3	112	0.00	30.308 
05:15	41.9	41.9	41.9	55	26.9	0	2	112	0.00	30.306 
05:20	42.1	42.1	42.1	54	26.7	1	2	112	0.00	30.306 
05:25	42.2	42.2	42.2	54	26.8	0	2	112	0.00	30.306 
05:30	42.2	42.2	42.2	54	26.8	1	3	112	0.00	30.304 
05:35	42.3	42.3	42.3	55	27.3	0	2	112	0.00	30.304 
05:40	42.3	42.3	42.3	55	27.3	0	1	112	0.00	30.304 
05:45	42.2	42.2	42.2	55	27.2	1	3	90	0.00	30.302 
05:50	42.3	42.3	42.3	55	27.3	0	3	180	0.00	30.302 
05:55	42.3	42.3	42.3	57	28.2	0	1	180	0.00	30.302 
06:00	42.2	42.2	42.2	56	27.6	0	2	158	0.00	30.301 
06:05	42.2	42.2	42.2	57	28.1	0	1	158	0.00	30.301 
06:10	42.2	42.2	42.2	57	28.1	0	2	112	0.00	30.301 
06:15	42.2	42.2	42.2	57	28.1	1	2	112	0.00	30.295 
06:20	42.2	42.2	42.2	57	28.1	1	2	112	0.00	30.295 
06:25	42.3	42.3	42.3	57	28.2	1	4	135	0.00	30.295 
06:30	42.3	42.3	42.3	58	28.6	0	2	90	0.00	30.292 
06:35	42.3	42.3	42.3	58	28.6	0	2	0	0.00	30.292 
06:40	42.3	42.3	42.3	57	28.2	1	3	45	0.00	30.292 
06:45	42.3	42.3	42.3	57	28.2	1	3	112	0.00	30.286 
06:50	42.5	42.5	42.5	58	28.8	1	3	90	0.00	30.286 
06:55	42.5	42.5	42.5	57	28.4	0	2	112	0.00	30.286 
07:00	42.6	42.6	42.6	57	28.4	1	3	68	0.00	30.283 
07:05	42.6	42.6	42.6	57	28.4	0	2	112	0.00	30.283 
07:10	42.6	42.6	42.6	58	28.9	0	2	112	0.00	30.283 
07:15	42.6	42.6	42.6	57	28.4	1	3	90	0.00	30.284 
07:20	42.6	42.6	42.6	57	28.4	0	1	112	0.00	30.284 
07:25	42.6	42.6	42.6	57	28.4	0	1	112	0.00	30.284 
07:30	42.6	42.6	42.6	57	28.4	0	1	112	0.00	30.287 
07:35	42.8	42.8	42.8	57	28.6	0	2	112	0.00	30.287 
07:40	42.8	42.8	42.8	58	29.1	0	1	112	0.00	30.287 
07:45	42.8	42.8	42.8	58	29.1	0	2	112	0.00	30.288 
07:50	42.9	42.9	42.9	58	29.2	0	2	112	0.00	30.288 
07:55	42.9	42.9	42.9	57	28.7	0	1	112	0.00	30.288 
08:00	43.1	43.1	43.1	58	29.3	0	1	112	0.00	30.291 
08:05	43.1	43.1	43.1	58	29.3	0	1	112	0.00	30.291 
08:10	43.2	43.2	43.2	58	29.4	0	2	112	0.00	30.291 
08:15	43.2	43.2	43.2	58	29.4	0	1	112	0.00	30.293 
08:20	43.5	43.5	43.5	57	29.3	1	3	90	0.00	30.293 
08:25	43.6	43.6	43.6	56	29.0	0	2	90	0.00	30.293 
08:30	43.8	43.8	43.8	57	29.6	1	3	112	0.00	30.294 
08:35	43.9	43.9	43.9	56	29.2	1	3	112	0.00	30.294 
08:40	44.1	44.1	44.1	56	29.4	1	3	112	0.00	30.294 
08:45	44.2	44.2	44.2	56	29.5	1	3	112	0.00	30.295 
08:50	44.3	44.3	44.3	56	29.6	1	3	112	0.00	30.295 
08:55	44.3	44.3	44.3	55	29.2	1	3	68	0.00	30.295 
09:00	44.5	44.5	44.5	56	29.8	1	2	90	0.00	30.293 
09:05	44.8	44.8	44.8	56	30.1	0	2	180	0.00	30.293 
09:10	44.9	44.9	44.9	54	29.3	1	4	270	0.00	30.293 
09:15	45.2	45.2	45.2	56	30.4	0	2	270	0.00	30.293 
09:20	45.4	45.4	45.4	57	31.1	1	3	270	0.00	30.293 
09:25	45.7	45.7	45.7	56	30.9	1	3	225	0.00	30.293 
09:30	46.1	46.1	46.1	56	31.3	1	3	0	0.00	30.294 
09:35	46.2	46.2	46.2	54	30.5	1	3	248	0.00	30.294 
09:40	46.4	46.4	46.4	54	30.7	0	2	292	0.00	30.294 
09:45	47.0	47.0	47.0	54	31.2	1	3	292	0.00	30.294 
09:50	47.9	47.9	47.9	53	31.6	1	2	90	0.00	30.294 
09:55	48.6	48.6	48.6	51	31.3	1	4	90	0.00	30.294 
10:00	49.2	49.2	49.2	50	31.4	1	4	248	0.00	30.292 
10:05	49.5	49.5	49.5	49	31.1	1	5	248	0.00	30.292 
10:10	49.6	49.6	49.6	51	32.2	1	5	248	0.00	30.292 
10:15	49.9	49.9	49.9	49	31.5	1	4	248	0.00	30.290 
10:20	50.1	50.1	50.1	48	31.2	2	7	248	0.00	30.290 
10:25	50.1	50.1	50.1	48	31.2	2	4	248	0.00	30.290 
10:30	49.8	49.8	49.8	48	30.9	2	5	248	0.00	30.288 
10:35	50.1	50.1	50.1	47	30.7	2	5	248	0.00	30.288 
10:40	50.7	50.7	50.7	48	31.7	2	6	248	0.00	30.288 
10:45	51.0	51.0	51.0	50	33.0	2	7	270	0.00	30.287 
10:50	51.6	51.6	51.6	49	33.1	1	5	248	0.00	30.287 
10:55	51.9	51.9	51.9	48	32.8	1	5	315	0.00	30.287 
11:00	52.2	52.2	52.2	46	32.1	1	3	248	0.00	30.284 
11:05	52.3	52.3	52.3	47	32.7	1	3	248	0.00	30.284 
11:10	52.5	52.5	52.5	47	32.9	1	3	248	0.00	30.284 
11:15	52.5	52.5	52.5	45	31.8	1	5	248	0.00	30.285 
11:20	52.3	52.3	52.3	46	32.1	1	4	248	0.00	30.285 
11:25	52.3	52.3	52.3	44	31.0	1	7	248	0.00	30.285 
11:30	52.5	52.5	52.5	48	33.4	0	2	225	0.00	30.284 
11:35	52.6	52.6	52.6	44	31.3	1	6	248	0.00	30.284 
11:40	52.8	52.8	52.8	43	30.9	2	5	248	0.00	30.284 
11:45	52.6	52.6	52.6	43	30.7	3	9	248	0.00	30.277 
11:50	52.6	52.6	52.6	42	30.2	2	5	248	0.00	30.277 
11:55	52.6	52.6	52.6	42	30.2	2	6	248	0.00	30.277 
12:00	52.6	52.6	52.6	41	29.6	3	7	248	0.00	30.274 
12:05	52.6	52.6	52.6	41	29.6	2	6	248	0.00	30.274 
12:10	52.6	52.6	52.6	41	29.6	1	6	248	0.00	30.274 
12:15	52.5	52.5	52.5	43	30.7	2	6	248	0.00	30.272 
12:20	52.6	52.6	52.6	42	30.2	2	4	248	0.00	30.272 
12:25	52.6	52.6	52.6	42	30.2	2	5	248	0.00	30.272 
12:30	52.6	52.6	52.6	43	30.7	1	3	248	0.00	30.269 
12:35	52.9	52.9	52.9	45	32.1	1	4	270	0.00	30.269 
12:40	53.1	53.1	53.1	42	30.6	1	4	248	0.00	30.269 
12:45	53.2	53.2	53.2	43	31.3	2	7	248	0.00	30.262 
12:50	53.3	53.3	53.3	46	33.1	1	4	248	0.00	30.262 
12:55	53.5	53.5	53.5	42	31.0	2	4	248	0.00	30.262 
13:00	53.5	53.5	53.5	41	30.4	2	4	248	0.00	30.257 
13:05	53.5	53.5	53.5	42	31.0	2	5	248	0.00	30.257 
13:10	53.5	53.5	53.5	43	31.6	1	3	270	0.00	30.257 
13:15	53.6	53.6	53.6	44	32.2	1	3	270	0.00	30.254 
13:20	53.6	53.6	53.6	44	32.2	1	4	248	0.00	30.254 
13:25	53.8	53.8	53.8	43	31.8	2	5	248	0.00	30.254 
13:30	53.9	53.9	53.9	43	31.9	2	5	248	0.00	30.254 
13:35	54.1	54.1	54.1	41	30.9	1	5	270	0.00	30.254 
13:40	54.4	54.4	54.4	41	31.2	2	6	248	0.00	30.254 
13:45	54.5	54.5	54.5	42	31.9	1	4	248	0.00	30.251 
13:50	54.7	54.7	54.7	41	31.5	1	3	248	0.00	30.251 
13:55	54.8	54.8	54.8	41	31.6	1	3	248	0.00	30.251 
14:00	55.0	55.0	55.0	40	31.1	1	3	248	0.00	30.247 
14:05	55.0	55.0	55.0	41	31.7	1	3	248	0.00	30.247 
14:10	54.8	54.8	54.8	40	30.9	2	6	248	0.00	30.247 
14:15	54.8	54.8	54.8	41	31.6	2	5	248	0.00	30.240 
14:20	54.8	54.8	54.8	41	31.6	2	6	248	0.00	30.240 
14:25	54.8	54.8	54.8	41	31.6	3	7	248	0.00	30.240 
14:30	54.7	54.7	54.7	40	30.9	3	7	248	0.00	30.239 
14:35	54.7	54.7	54.7	39	30.2	3	9	248	0.00	30.239 
14:40	54.4	54.4	54.4	40	30.6	3	7	248	0.00	30.239 
14:45	54.1	54.1	54.1	41	30.9	2	6	248	0.00	30.238 
14:50	53.9	53.9	53.9	42	31.3	2	5	248	0.00	30.238 
14:55	53.8	53.8	53.8	43	31.8	1	4	248	0.00	30.238 
15:00	53.6	53.6	53.6	44	32.2	1	3	248	0.00	30.235 
15:05	53.6	53.6	53.6	44	32.2	0	2	248	0.00	30.235 
15:10	53.6	53.6	53.6	47	33.9	0	0	---	0.00	30.235 
15:15	53.6	53.6	53.6	49	34.9	0	1	248	0.00	30.234 
15:20	53.6	53.6	53.6	50	35.4	0	0	---	0.00	30.234 
15:25	53.5	53.5	53.5	49	34.8	0	1	248	0.00	30.234 
15:30	53.5	53.5	53.5	49	34.8	0	1	248	0.00	30.235 
15:35	53.5	53.5	53.5	46	33.2	0	3	248	0.00	30.235 
15:40	53.6	53.6	53.6	48	34.4	1	3	248	0.00	30.235 
15:45	53.9	53.9	53.9	46	33.6	1	4	248	0.00	30.235 
15:50	54.1	54.1	54.1	46	33.8	1	2	248	0.00	30.235 
15:55	54.4	54.4	54.4	46	34.1	1	5	248	0.00	30.235 
16:00	54.5	54.5	54.5	45	33.6	0	1	248	0.00	30.232 
16:05	54.7	54.7	54.7	44	33.2	0	2	248	0.00	30.232 
16:10	54.7	54.7	54.7	44	33.2	0	1	248	0.00	30.232 
16:15	54.7	54.7	54.7	44	33.2	0	1	248	0.00	30.231 
16:20	54.7	54.7	54.7	44	33.2	0	2	248	0.00	30.231 
16:25	54.7	54.7	54.7	43	32.6	1	3	248	0.00	30.231 
16:30	54.7	54.7	54.7	44	33.2	1	4	248	0.00	30.233 
16:35	54.7	54.7	54.7	44	33.2	1	4	248	0.00	30.233 
16:40	54.5	54.5	54.5	44	33.0	0	2	248	0.00	30.233 
16:45	54.5	54.5	54.5	44	33.0	1	2	248	0.00	30.232 
16:50	54.7	54.7	54.7	45	33.8	1	4	248	0.00	30.232 
16:55	54.7	54.7	54.7	44	33.2	1	4	248	0.00	30.232 
17:00	54.7	54.7	54.7	45	33.8	2	7	248	0.00	30.229 
17:05	54.7	54.7	54.7	46	34.3	3	7	248	0.00	30.229 
17:10	54.5	54.5	54.5	46	34.1	2	4	248	0.00	30.229 
17:15	54.5	54.5	54.5	46	34.1	2	5	270	0.00	30.227 
17:20	54.4	54.4	54.4	46	34.1	2	5	248	0.00	30.227 
17:25	54.4	54.4	54.4	47	34.6	1	5	248	0.00	30.227 
17:30	54.2	54.2	54.2	47	34.4	1	4	248	0.00	30.223 
17:35	54.1	54.1	54.1	48	34.8	1	3	248	0.00	30.223 
17:40	53.9	53.9	53.9	47	34.1	1	4	248	0.00	30.223 
17:45	53.8	53.8	53.8	48	34.6	0	2	225	0.00	30.221 
17:50	53.6	53.6	53.6	48	34.4	0	1	225	0.00	30.221 
17:55	53.5	53.5	53.5	49	34.8	0	3	270	0.00	30.221 
18:00	53.3	53.3	53.3	50	35.1	0	2	270	0.00	30.224 
18:05	53.2	53.2	53.2	50	35.0	0	3	248	0.00	30.224 
18:10	53.1	53.1	53.1	51	35.5	0	2	248	0.00	30.224 
18:15	52.8	52.8	52.8	52	35.7	0	1	248	0.00	30.222 
18:20	52.5	52.5	52.5	52	35.4	0	1	248	0.00	30.222 
18:25	52.3	52.3	52.3	53	35.7	0	1	248	0.00	30.222 
18:30	52.2	52.2	52.2	54	36.1	0	1	248	0.00	30.224 
18:35	52.0	52.0	52.0	53	35.4	0	1	248	0.00	30.224 
18:40	51.9	51.9	51.9	54	35.8	0	1	248	0.00	30.224 
18:45	51.7	51.7	51.7	54	35.6	1	3	248	0.00	30.225 
18:50	51.9	51.9	51.9	53	35.3	1	5	248	0.00	30.225 
18:55	52.0	52.0	52.0	54	35.9	1	5	248	0.00	30.225 
19:00	52.0	52.0	52.0	54	35.9	2	6	248	0.00	30.229 
19:05	52.0	52.0	52.0	54	35.9	1	3	248	0.00	30.229 
19:10	51.9	51.9	51.9	55	36.2	1	4	248	0.00	30.229 
19:15	51.7	51.7	51.7	56	36.5	1	4	248	0.00	30.238 
19:20	51.7	51.7	51.7	57	37.0	1	4	248	0.00	30.238 
19:25	51.6	51.6	51.6	58	37.3	2	6	248	0.00	30.238 
19:30	51.6	51.6	51.6	59	37.7	2	5	248	0.00	30.239 
19:35	51.4	51.4	51.4	60	38.0	1	4	248	0.00	30.239 
19:40	51.3	51.3	51.3	61	38.3	2	4	270	0.00	30.239 
19:45	51.1	51.1	51.1	62	38.5	1	4	248	0.00	30.241 
19:50	51.0	51.0	51.0	62	38.4	1	4	248	0.00	30.241 
19:55	50.7	50.7	50.7	62	38.2	1	4	248	0.00	30.241 
20:00	50.5	50.5	50.5	63	38.4	0	2	248	0.00	30.249 
20:05	50.5	50.5	50.5	64	38.8	1	4	248	0.00	30.249 
20:10	50.5	50.5	50.5	64	38.8	1	4	248	0.00	30.249 
20:15	50.5	50.5	50.5	64	38.8	1	3	248	0.00	30.247 
20:20	50.5	50.5	50.5	64	38.8	0	2	248	0.00	30.247 
20:25	50.5	50.5	50.5	64	38.8	0	2	248	0.00	30.247 
20:30	50.5	50.5	50.5	65	39.2	0	2	248	0.00	30.249 
20:35	50.4	50.4	50.4	65	39.1	0	1	248	0.00	30.249 
20:40	50.4	50.4	50.4	65	39.1	1	3	248	0.00	30.249 
20:45	50.4	50.4	50.4	65	39.1	0	2	248	0.00	30.251 
20:50	50.2	50.2	50.2	65	38.9	0	1	248	0.00	30.251 
20:55	50.2	50.2	50.2	65	38.9	0	2	248	0.00	30.251 
21:00	50.1	50.1	50.1	65	38.8	0	2	248	0.00	30.251 
21:05	50.1	50.1	50.1	65	38.8	0	3	248	0.00	30.251 
21:10	50.1	50.1	50.1	65	38.8	0	3	248	0.00	30.251 
21:15	49.9	49.9	49.9	66	39.0	0	2	248	0.00	30.247 
21:20	49.6	49.6	49.6	66	38.7	0	2	248	0.00	30.247 
21:25	49.4	49.4	49.4	66	38.5	0	1	248	0.00	30.247 
21:30	49.1	49.1	49.1	67	38.6	0	1	248	0.00	30.245 
21:35	48.8	48.8	48.8	68	38.7	0	1	248	0.00	30.245 
21:40	48.5	48.5	48.5	68	38.4	0	1	248	0.00	30.245 
21:45	48.2	48.2	48.2	69	38.5	0	2	248	0.00	30.247 
21:50	48.0	48.0	48.0	69	38.3	0	2	248	0.00	30.247 
21:55	47.9	47.9	47.9	69	38.2	0	0	---	0.00	30.247 
22:00	47.7	47.7	47.7	69	38.0	0	0	---	0.00	30.248 
22:05	47.6	47.6	47.6	70	38.3	0	0	---	0.00	30.248 
22:10	47.3	47.3	47.3	70	38.0	0	0	---	0.00	30.248 
22:15	47.1	47.1	47.1	70	37.8	0	1	248	0.00	30.250 
22:20	47.0	47.0	47.0	71	38.1	0	0	---	0.00	30.250 
22:25	46.8	46.8	46.8	71	37.9	0	1	248	0.00	30.250 
22:30	46.5	46.5	46.5	71	37.6	0	1	248	0.00	30.250 
22:35	46.5	46.5	46.5	71	37.6	0	0	---	0.00	30.250 
22:40	46.2	46.2	46.2	72	37.7	0	0	---	0.00	30.250 
22:45	46.1	46.1	46.1	72	37.6	0	0	---	0.00	30.252 
22:50	45.7	45.7	45.7	73	37.5	0	0	---	0.00	30.252 
22:55	45.4	45.4	45.4	73	37.3	0	0	---	0.00	30.252 
23:00	45.2	45.2	45.2	73	37.1	0	0	---	0.00	30.254 
23:05	44.9	44.9	44.9	74	37.1	0	0	---	0.00	30.254 
23:10	44.8	44.8	44.8	74	37.0	0	0	---	0.00	30.254 
23:15	44.6	44.6	44.6	75	37.2	0	0	---	0.00	30.251 
23:20	44.6	44.6	44.6	75	37.2	0	0	---	0.00	30.251 
23:25	44.8	44.8	44.8	75	37.4	0	0	---	0.00	30.251 
23:30	44.8	44.8	44.8	75	37.4	0	0	---	0.00	30.249 
23:35	44.6	44.6	44.6	74	36.8	0	0	---	0.00	30.249 
23:40	44.6	44.6	44.6	74	36.8	0	0	---	0.00	30.249 
23:45	44.5	44.5	44.5	75	37.1	0	0	---	0.00	30.249 
23:50	44.2	44.2	44.2	75	36.8	0	0	---	0.00	30.249 
23:55	44.1	44.1	44.1	75	36.7	0	0	---	0.00	30.249 

CoCoRaHS
IN-AL-39
A2 Web Hosting
Creative Commons License
GoDaddy
Look for:

loaded 2017-10-18 22:04:40 • last modified 2010-11-18 10:43:29
Privacy PolicyDisclaimer
• wx.awcolley.com is powered by PmWiki v.2002016 •
• all content (unless otherwise noted) © 2017 A W Colley